Time;durP1;ratioP1;P1;durP2;ratioP2;P2;SDS_P1;SDS_P2;PMS_P1;PMS_P2;Temp;Humidity;BMP_temperature;BMP_pressure;BME280_temperature;BME280_humidity;BME280_pressure;Samples;Min_cycle;Max_cycle;Signal;HPM_P1;HPM_P2
2022/12/12 00:07:19;;;;;;;52.88;21.42;;;;;;;-0.95;100.00;99816.44;20906527;28;20053;-72
2022/12/12 00:17:20;;;;;;;52.97;21.10;;;;;;;-0.90;100.00;99824.25;20900576;28;20053;-70
2022/12/12 00:27:21;;;;;;;51.50;20.88;;;;;;;-0.99;100.00;99818.91;20822897;28;20057;-71
2022/12/12 00:37:22;;;;;;;51.90;21.08;;;;;;;-1.00;100.00;99823.19;20890968;28;20235;-71
2022/12/12 00:47:24;;;;;;;49.78;20.38;;;;;;;-1.06;100.00;99823.03;20904164;28;20052;-71
2022/12/12 00:57:25;;;;;;;48.33;19.17;;;;;;;-1.25;100.00;99816.63;20901624;28;20053;-72
2022/12/12 01:07:27;;;;;;;51.30;18.42;;;;;;;-1.37;100.00;99826.63;20902603;28;20099;-71
2022/12/12 01:17:28;;;;;;;48.05;19.55;;;;;;;-1.50;100.00;99828.03;20902001;28;20053;-72
2022/12/12 01:27:30;;;;;;;52.30;19.52;;;;;;;-1.62;100.00;99850.88;20901746;28;20279;-71
2022/12/12 01:37:31;;;;;;;41.30;18.52;;;;;;;-1.65;100.00;99845.66;20900556;28;20060;-71
2022/12/12 01:47:32;;;;;;;50.53;19.52;;;;;;;-1.80;100.00;99848.72;20900715;28;20126;-72
2022/12/12 01:57:34;;;;;;;54.50;20.02;;;;;;;-1.99;100.00;99860.19;20899804;28;20057;-71
2022/12/12 02:07:35;;;;;;;54.78;20.70;;;;;;;-2.20;100.00;99864.78;20912967;28;20111;-70
2022/12/12 02:17:36;;;;;;;48.20;17.88;;;;;;;-2.25;100.00;99862.09;20907668;28;20049;-70
2022/12/12 02:27:37;;;;;;;51.28;18.98;;;;;;;-2.23;100.00;99869.81;20832518;28;20505;-70
2022/12/12 02:37:39;;;;;;;51.38;19.88;;;;;;;-2.26;100.00;99859.47;20903416;28;20045;-70
2022/12/12 02:47:40;;;;;;;53.03;20.80;;;;;;;-2.33;100.00;99869.56;20914324;28;20167;-70
2022/12/12 02:57:41;;;;;;;51.50;19.38;;;;;;;-2.42;100.00;99858.19;20912945;28;20041;-71
2022/12/12 03:07:45;;;;;;;51.28;19.15;;;;;;;-2.60;100.00;99858.53;20911483;28;20073;-70
2022/12/12 03:17:47;;;;;;;51.08;19.35;;;;;;;-2.63;100.00;99863.59;20910338;28;20545;-72
2022/12/12 03:27:48;;;;;;;56.75;20.50;;;;;;;-2.72;100.00;99858.22;20910337;28;20056;-71
2022/12/12 03:37:49;;;;;;;56.25;20.48;;;;;;;-2.79;100.00;99858.84;20910812;28;20168;-70
2022/12/12 03:47:51;;;;;;;60.30;21.35;;;;;;;-2.82;100.00;99856.22;20888152;28;20057;-72
2022/12/12 03:57:52;;;;;;;59.10;22.15;;;;;;;-2.96;100.00;99858.38;20908618;28;20049;-72
2022/12/12 04:07:53;;;;;;;58.00;22.30;;;;;;;-3.07;100.00;99846.91;20907491;28;20056;-71
2022/12/12 04:17:54;;;;;;;61.20;23.55;;;;;;;-3.15;100.00;99854.38;20906742;28;20056;-71
2022/12/12 04:27:56;;;;;;;67.43;24.02;;;;;;;-3.23;100.00;99855.81;20905939;28;20053;-71
2022/12/12 04:37:57;;;;;;;65.35;22.75;;;;;;;-3.29;100.00;99863.31;20935147;23;20049;-69
2022/12/12 04:47:58;;;;;;;65.95;22.10;;;;;;;-3.38;100.00;99864.78;20904083;28;20052;-71
2022/12/12 04:58:00;;;;;;;60.58;22.25;;;;;;;-3.37;100.00;99866.50;20903793;28;20481;-68
2022/12/12 05:08:01;;;;;;;66.60;24.70;;;;;;;-3.27;100.00;99885.56;20902733;28;20052;-68
2022/12/12 05:18:02;;;;;;;74.07;27.80;;;;;;;-3.39;100.00;99916.78;20902311;28;20139;-67
2022/12/12 05:28:03;;;;;;;67.85;26.63;;;;;;;-3.46;100.00;99914.84;20916736;28;20550;-68
2022/12/12 05:38:05;;;;;;;77.68;28.60;;;;;;;-3.53;100.00;99909.50;21056504;28;20052;-67
2022/12/12 05:48:06;;;;;;;74.00;27.92;;;;;;;-3.25;100.00;99906.13;21067298;28;20462;-67
2022/12/12 05:58:07;;;;;;;69.18;24.92;;;;;;;-3.07;100.00;99922.03;21066503;28;20113;-68
2022/12/12 06:08:09;;;;;;;67.68;25.10;;;;;;;-2.90;100.00;99910.63;21065721;28;20052;-68
2022/12/12 06:18:11;;;;;;;63.65;24.77;;;;;;;-2.86;100.00;99920.16;21053671;28;20155;-68
2022/12/12 06:28:12;;;;;;;62.70;24.92;;;;;;;-2.80;100.00;99931.41;20982482;28;20489;-68
2022/12/12 06:38:13;;;;;;;67.47;26.35;;;;;;;-2.90;100.00;99933.69;20980792;28;20056;-67
2022/12/12 06:48:15;;;;;;;64.28;24.58;;;;;;;-3.01;100.00;99941.88;20982644;28;20052;-68
2022/12/12 06:58:16;;;;;;;66.28;23.77;;;;;;;-3.05;100.00;99945.16;20992570;28;20082;-67
2022/12/12 07:08:17;;;;;;;55.63;23.13;;;;;;;-3.00;100.00;99947.03;20992043;28;20044;-67
2022/12/12 07:18:19;;;;;;;59.20;23.48;;;;;;;-2.89;100.00;99958.47;21003731;28;20063;-70
2022/12/12 07:28:20;;;;;;;55.65;22.77;;;;;;;-2.86;100.00;99973.94;21076878;28;20101;-70
2022/12/12 07:38:21;;;;;;;63.50;24.83;;;;;;;-2.79;100.00;99984.38;21074427;28;20378;-70
2022/12/12 07:48:22;;;;;;;51.25;20.90;;;;;;;-2.74;100.00;99980.25;21075060;28;20056;-70
2022/12/12 07:58:24;;;;;;;62.63;25.10;;;;;;;-2.76;100.00;99992.16;21074563;28;20458;-71
2022/12/12 08:08:25;;;;;;;60.78;23.70;;;;;;;-2.57;100.00;99997.03;21009325;28;20052;-71
2022/12/12 08:18:26;;;;;;;58.83;24.95;;;;;;;-2.48;100.00;100012.69;20986266;28;20126;-71
2022/12/12 08:28:28;;;;;;;53.35;22.48;;;;;;;-2.28;100.00;100014.97;20983082;28;20519;-71
2022/12/12 08:38:29;;;;;;;56.10;22.85;;;;;;;-2.17;100.00;100019.59;20984225;28;20149;-71
2022/12/12 08:48:30;;;;;;;57.83;23.05;;;;;;;-2.04;100.00;100030.22;20984442;28;20096;-71
2022/12/12 08:58:32;;;;;;;51.17;21.40;;;;;;;-1.96;100.00;100029.59;20985709;28;20059;-72
2022/12/12 09:08:33;;;;;;;52.33;20.15;;;;;;;-1.76;100.00;100039.56;20983522;28;20401;-71
2022/12/12 09:18:34;;;;;;;48.20;21.63;;;;;;;-1.60;100.00;100047.72;20981839;28;20056;-73
2022/12/12 09:28:36;;;;;;;54.90;20.90;;;;;;;-1.38;100.00;100054.31;20982512;28;20092;-68
2022/12/12 09:38:37;;;;;;;54.08;21.83;;;;;;;-1.22;100.00;100052.13;20981180;28;20048;-70
2022/12/12 09:48:38;;;;;;;54.78;20.10;;;;;;;-1.00;100.00;100053.56;20962118;28;20394;-71
2022/12/12 09:58:40;;;;;;;60.78;22.55;;;;;;;-0.79;100.00;100060.09;20981918;28;20056;-68
2022/12/12 10:08:49;;;;;;;50.90;20.55;;;;;;;-0.86;100.00;100040.22;20981817;28;20045;-69
2022/12/12 10:18:50;;;;;;;53.45;22.45;;;;;;;-0.89;100.00;100024.72;20980961;28;20064;-67
2022/12/12 10:28:51;;;;;;;44.15;20.05;;;;;;;-1.01;100.00;100032.09;20993514;28;20048;-68
2022/12/12 10:38:53;;;;;;;59.28;24.35;;;;;;;-1.09;100.00;100031.94;20995479;28;20431;-69
2022/12/12 10:48:54;;;;;;;59.55;23.95;;;;;;;-1.08;100.00;100025.09;20995163;28;20072;-67
2022/12/12 10:58:55;;;;;;;63.70;26.20;;;;;;;-0.81;100.00;100028.34;20994062;28;20063;-68
2022/12/12 11:08:57;;;;;;;54.17;23.85;;;;;;;-0.80;100.00;100022.38;20994510;28;20058;-67
2022/12/12 11:18:58;;;;;;;61.15;24.90;;;;;;;-0.58;100.00;100021.16;20991940;28;20052;-69
2022/12/12 11:29:00;;;;;;;50.95;22.70;;;;;;;-0.83;100.00;100016.28;20991668;28;20052;-68
2022/12/12 11:39:02;;;;;;;56.22;23.85;;;;;;;-0.91;100.00;100016.13;20990795;28;20497;-71
2022/12/12 11:49:03;;;;;;;51.95;21.92;;;;;;;-0.92;100.00;100019.50;20991961;28;20143;-71
2022/12/12 11:59:04;;;;;;;51.25;22.02;;;;;;;-1.00;100.00;100012.44;21027525;28;20061;-71
2022/12/12 12:09:06;;;;;;;50.45;21.48;;;;;;;-1.23;100.00;99993.91;20988964;28;20064;-71
2022/12/12 12:19:07;;;;;;;52.78;21.50;;;;;;;-1.22;100.00;99995.63;20988893;28;20053;-70
2022/12/12 12:29:08;;;;;;;53.92;22.15;;;;;;;-1.26;100.00;99978.41;20989053;28;20048;-71
2022/12/12 12:39:10;;;;;;;47.95;21.27;;;;;;;-1.36;100.00;99973.03;20986537;28;20060;-71
2022/12/12 12:49:11;;;;;;;55.20;21.98;;;;;;;-1.35;100.00;99972.19;20985337;28;20053;-70
2022/12/12 12:59:12;;;;;;;43.83;20.27;;;;;;;-1.40;100.00;99976.34;20985231;28;20446;-73
2022/12/12 13:09:13;;;;;;;48.65;21.98;;;;;;;-1.42;100.00;99967.75;20984887;28;20468;-71
2022/12/12 13:19:15;;;;;;;50.72;22.33;;;;;;;-1.28;100.00;99950.13;20984585;28;20413;-70
2022/12/12 13:29:16;;;;;;;52.75;20.02;;;;;;;-1.11;100.00;99947.94;20984171;28;20048;-71
2022/12/12 13:39:17;;;;;;;45.67;19.17;;;;;;;-1.15;100.00;99947.03;21015118;28;20466;-70
2022/12/12 13:49:19;;;;;;;49.67;21.27;;;;;;;-0.88;100.00;99935.63;21067865;28;20411;-71
2022/12/12 13:59:20;;;;;;;55.95;22.60;;;;;;;-1.06;100.00;99931.78;21072660;28;20056;-69
2022/12/12 14:09:21;;;;;;;50.83;20.48;;;;;;;-1.10;100.00;99939.44;21083521;28;20052;-70
2022/12/12 14:19:41;;;;;;;51.47;21.58;;;;;;;-1.14;100.00;99953.03;21057264;28;20075;-71
2022/12/12 14:29:42;;;;;;;54.40;22.13;;;;;;;-1.30;100.00;99937.22;20997335;28;20390;-70
2022/12/12 14:39:44;;;;;;;52.17;21.80;;;;;;;-1.41;100.00;99938.66;20995376;28;20062;-69
2022/12/12 14:49:45;;;;;;;51.30;22.00;;;;;;;-1.30;100.00;99920.94;20995672;28;20106;-69
2022/12/12 14:59:46;;;;;;;57.28;24.83;;;;;;;-1.35;100.00;99917.41;20994810;28;20052;-71
2022/12/12 15:09:48;;;;;;;54.45;22.98;;;;;;;-1.52;100.00;99929.84;20992324;28;20063;-69
2022/12/12 15:19:49;;;;;;;54.50;24.63;;;;;;;-1.79;100.00;99936.81;20992577;28;20579;-68
2022/12/12 15:29:50;;;;;;;53.17;20.95;;;;;;;-2.03;100.00;99945.59;20993068;28;20057;-68
2022/12/12 15:39:51;;;;;;;54.25;21.83;;;;;;;-2.29;100.00;99941.44;20990221;28;20153;-68
2022/12/12 15:49:53;;;;;;;53.50;21.85;;;;;;;-2.56;100.00;99927.00;20976131;28;20049;-68
2022/12/12 15:59:54;;;;;;;74.25;29.95;;;;;;;-2.63;100.00;99948.16;20988334;28;20052;-68
2022/12/12 16:09:55;;;;;;;59.92;23.67;;;;;;;-2.74;100.00;99931.56;20989244;28;20074;-68
2022/12/12 16:19:57;;;;;;;55.05;22.52;;;;;;;-2.97;100.00;99942.00;20987195;28;20772;-68
2022/12/12 16:29:58;;;;;;;57.25;23.45;;;;;;;-3.17;100.00;99949.03;20988002;28;20067;-68
2022/12/12 16:39:59;;;;;;;50.08;23.50;;;;;;;-3.17;100.00;99968.66;20986375;28;20060;-69
2022/12/12 16:50:02;;;;;;;60.85;23.13;;;;;;;-3.33;100.00;99969.00;20986126;28;20052;-68
2022/12/12 17:00:03;;;;;;;68.07;24.65;;;;;;;-3.48;100.00;99970.22;20986067;28;20110;-69
2022/12/12 17:10:04;;;;;;;67.45;29.08;;;;;;;-3.60;100.00;99962.13;20973202;28;20428;-69
2022/12/12 17:20:05;;;;;;;62.75;25.30;;;;;;;-3.68;100.00;99966.13;20975150;28;20106;-68
2022/12/12 17:30:07;;;;;;;72.68;29.10;;;;;;;-3.80;100.00;99966.56;20973856;28;20186;-68
2022/12/12 17:40:09;;;;;;;84.93;39.05;;;;;;;-3.85;100.00;99959.56;20972217;28;20084;-69
2022/12/12 17:50:11;;;;;;;115.47;51.10;;;;;;;-3.89;100.00;99946.66;20971291;28;20224;-68
2022/12/12 18:00:13;;;;;;;104.68;43.17;;;;;;;-3.94;100.00;99958.41;20970374;28;20048;-68
2022/12/12 18:10:15;;;;;;;102.43;44.33;;;;;;;-3.79;100.00;99946.97;20964536;28;20048;-68
2022/12/12 18:20:16;;;;;;;105.07;41.17;;;;;;;-3.92;100.00;99961.03;20968014;28;20083;-68
2022/12/12 18:30:18;;;;;;;97.68;38.38;;;;;;;-3.96;100.00;99960.06;20956030;28;20111;-69
2022/12/12 18:40:19;;;;;;;82.40;32.40;;;;;;;-4.06;100.00;99958.00;20969634;28;20049;-68
2022/12/12 18:50:20;;;;;;;78.13;32.33;;;;;;;-4.21;100.00;99953.22;20983622;28;20064;-68
2022/12/12 19:00:21;;;;;;;79.38;33.72;;;;;;;-4.32;100.00;99944.25;20983554;28;25315;-68
2022/12/12 19:10:23;;;;;;;80.65;35.80;;;;;;;-4.26;100.00;99953.88;20981884;28;20547;-67
2022/12/12 19:20:24;;;;;;;102.03;40.63;;;;;;;-4.23;100.00;99952.25;20982687;28;20458;-68
2022/12/12 19:30:28;;;;;;;101.22;45.95;;;;;;;-4.17;100.00;99949.06;20981124;28;20048;-68
2022/12/12 19:40:29;;;;;;;;;;;;;;;-4.15;100.00;99948.31;20983491;28;20052;-68
2022/12/12 19:50:30;;;;;;;91.65;37.75;;;;;;;-4.27;100.00;99942.75;20981248;28;19924;-68
2022/12/12 20:00:31;;;;;;;88.90;36.13;;;;;;;-4.27;100.00;99941.88;20979303;28;20056;-69
2022/12/12 20:10:33;;;;;;;100.07;36.67;;;;;;;-4.11;100.00;99949.28;20980328;28;20431;-69
2022/12/12 20:20:34;;;;;;;89.90;36.45;;;;;;;-4.06;100.00;99942.66;20978242;28;20060;-70
2022/12/12 20:30:35;;;;;;;82.68;33.22;;;;;;;-4.17;100.00;99938.81;20973571;28;20052;-69
2022/12/12 20:40:38;;;;;;;84.32;35.78;;;;;;;-4.23;100.00;99934.38;20977159;28;20131;-70
2022/12/12 20:50:40;;;;;;;84.72;37.58;;;;;;;-4.26;100.00;99939.41;20977392;28;20147;-69
2022/12/12 21:00:41;;;;;;;97.28;40.17;;;;;;;-4.27;100.00;99934.19;20972450;28;20045;-68
2022/12/12 21:10:43;;;;;;;90.15;36.53;;;;;;;-4.39;100.00;99938.06;21028287;28;20421;-69
2022/12/12 21:20:44;;;;;;;89.15;35.55;;;;;;;-4.35;100.00;99922.84;20976423;28;20064;-70
2022/12/12 21:30:45;;;;;;;99.47;37.45;;;;;;;-4.34;100.00;99925.47;20974946;28;20524;-68
2022/12/12 21:40:47;;;;;;;78.65;31.70;;;;;;;-4.27;100.00;99922.28;20973410;28;20063;-69
2022/12/12 21:50:48;;;;;;;82.47;32.35;;;;;;;-4.25;100.00;99914.69;20974645;28;20060;-69
2022/12/12 22:00:49;;;;;;;78.68;31.95;;;;;;;-4.29;100.00;99900.94;20973520;28;20098;-68
2022/12/12 22:10:50;;;;;;;80.35;31.58;;;;;;;-4.45;100.00;99896.97;20973302;28;20063;-68
2022/12/12 22:20:54;;;;;;;75.57;29.08;;;;;;;-4.45;100.00;99903.78;20978255;28;20056;-68
2022/12/12 22:30:56;;;;;;;70.65;28.15;;;;;;;-4.47;100.00;99902.81;20988492;28;20064;-68
2022/12/12 22:40:57;;;;;;;73.38;29.13;;;;;;;-4.54;100.00;99900.88;21165484;22;20052;-74
2022/12/12 22:50:58;;;;;;;69.85;28.83;;;;;;;-4.53;100.00;99893.25;21071931;28;20056;-73
2022/12/12 23:01:00;;;;;;;64.07;26.30;;;;;;;-4.62;100.00;99894.63;21071162;28;20141;-74
2022/12/12 23:11:01;;;;;;;94.30;32.22;;;;;;;-4.64;100.00;99879.25;21078323;28;20076;-74
2022/12/12 23:21:02;;;;;;;64.60;27.10;;;;;;;-4.77;100.00;99888.13;21077410;28;20048;-72
2022/12/12 23:31:03;;;;;;;71.97;26.75;;;;;;;-4.83;100.00;99874.28;21075419;28;20047;-73
2022/12/12 23:41:05;;;;;;;63.42;26.25;;;;;;;-4.78;100.00;99850.63;21075755;28;20059;-73
2022/12/12 23:51:06;;;;;;;69.95;29.52;;;;;;;-4.75;100.00;99848.19;21075548;28;20056;-73
